ADDS METAR Data INFO
IDs: Format: Raw Decoded Include TAF

Data at: 2251 UTC 22 Jun 2018

KLAN 222153Z 05008KT 5SM -RA FEW047 OVC090 19/15 A2976 RMK AO2 RAB09 SLP077 P0001 T01940150
KLAN 222053Z 06011KT 10SM OVC100 22/14 A2978 RMK AO2 SLP083 60000 T02170144 55007
KLAN 221953Z 09008KT 10SM OVC095 23/15 A2978 RMK AO2 RAE1856 SLP082 P0000 T02280150
KLAN 221853Z 07010KT 10SM -RA FEW044 SCT100 BKN110 23/14 A2978 RMK AO2 RAB41 SLP082 P0000 T02280144
KLAN 221753Z 06012KT 10SM CLR 23/14 A2981 RMK AO2 SLP090 T02330139 10233 20156 58013
KLAN 221653Z 05009G15KT 020V080 10SM FEW110 22/13 A2982 RMK AO2 SLP095 T02220133
KLAN 221553Z 06009KT 10SM BKN120 21/12 A2984 RMK AO2 SLP102 T02060122
KLAN 221453Z 06011KT 10SM SCT110 19/11 A2984 RMK AO2 SLP104 T01940111 56000
KLAN 221353Z 06008KT 10SM BKN110 18/10 A2985 RMK AO2 SLP104 T01830100
KLAN 221253Z 06007KT 10SM BKN110 17/09 A2984 RMK AO2 SLP103 T01720094
KLAN 221153Z 05007KT 10SM OVC110 16/09 A2985 RMK AO2 SLP104 60000 T01560094 10161 20139 53001
KLAN 221053Z 05005KT 10SM OVC110 15/09 A2985 RMK AO2 SLP104 T01500094
KLAN 220953Z 06004KT 10SM OVC110 14/09 A2984 RMK AO2 RAE09 SLP101 P0000 T01440094
KLAN 220853Z 05005KT 10SM -RA FEW060 OVC120 15/08 A2984 RMK AO2 RAB51 SLP101 P0000 60000 T01500083 56008
KLAN 220753Z 05006KT 10SM SCT100 14/08 A2985 RMK AO2 SLP103 T01440083
KLAN 220653Z 06010KT 10SM CLR 16/08 A2985 RMK AO2 SLP105 T01560078
KLAN 220553Z 05009KT 10SM CLR 16/08 A2987 RMK AO2 SLP109 T01610083 10206 20161 58004
KLAN 220453Z 05011KT 10SM CLR 17/09 A2987 RMK AO2 SLP111 T01670094 402670133
KLAN 220353Z 05011KT 10SM CLR 17/11 A2988 RMK AO2 SLP115 T01670106
KLAN 220253Z 05009KT 10SM CLR 18/11 A2988 RMK AO2 SLP113 T01780111 53009
KLAN 220153Z 04009KT 10SM CLR 19/12 A2987 RMK AO2 SLP111 T01890122
KLAN 220053Z 05010KT 10SM CLR 19/13 A2986 RMK AO2 SLP107 T01940133
KLAN 212353Z 05011KT 10SM CLR 21/14 A2985 RMK AO2 SLP106 T02060144 10267 20206 53003
KLAN 212253Z 04011KT 10SM CLR 22/16 A2984 RMK AO2 SLP103 T02220156
KLAN 212153Z 04009KT 10SM CLR 23/16 A2984 RMK AO2 SLP103 T02330161
KLAN 212053Z 10009KT 10SM CLR 26/13 A2984 RMK AO2 SLP101 T02610133 56008
KLAN 211953Z 10011G15KT 10SM CLR 26/14 A2985 RMK AO2 SLP104 T02610139
KLAN 211853Z 09010KT 10SM CLR 26/14 A2985 RMK AO2 SLP104 T02560139
KLAN 211753Z 06012KT 10SM CLR 24/13 A2986 RMK AO2 SLP110 T02440133 10250 20172 58008
KLAN 211653Z 05012G17KT 10SM CLR 24/13 A2988 RMK AO2 SLP116 T02390133
KLAN 211553Z 06009G16KT 10SM CLR 23/13 A2989 RMK AO2 SLP118 T02330128
KLAN 211453Z 07012KT 10SM CLR 23/12 A2989 RMK AO2 SLP117 T02280122 50000
KLAN 211353Z 08009KT 10SM CLR 21/11 A2989 RMK AO2 SLP119 T02110111
KLAN 211253Z AUTO 07009KT 10SM CLR 19/12 A2990 RMK AO2 SLP120 T01940122 TSNO
KLAN 211153Z AUTO 07006KT 10SM CLR 17/14 A2989 RMK AO2 SLP117 T01720144 10172 20133 53007 TSNO
KLAN 211053Z AUTO 04003KT 7SM CLR 14/14 A2988 RMK AO2 SLP117 T01440139 TSNO